Time;durP1;ratioP1;P1;durP2;ratioP2;P2;SDS_P1;SDS_P2;PMS_P1;PMS_P2;Temp;Humidity;BMP_temperature;BMP_pressure;BME280_temperature;BME280_humidity;BME280_pressure;Samples;Min_cycle;Max_cycle;Signal;HPM_P1;HPM_P2
2022/05/22 00:01:45;;;;;;;4.07;2.10;;;;;;;;;;6251845;28;20469;-80
2022/05/22 00:04:45;;;;;;;5.43;1.98;;;;;;;;;;6251243;28;20314;-80
2022/05/22 00:07:45;;;;;;;5.88;1.50;;;;;;;;;;6250544;28;20025;-81
2022/05/22 00:10:46;;;;;;;3.35;1.58;;;;;;;;;;6251936;28;20096;-81
2022/05/22 00:13:46;;;;;;;5.07;1.73;;;;;;;;;;6251282;28;20026;-81
2022/05/22 00:16:47;;;;;;;2.77;1.40;;;;;;;;;;6249856;28;20366;-81
2022/05/22 00:19:47;;;;;;;4.00;1.70;;;;;;;;;;6252316;28;20624;-81
2022/05/22 00:22:47;;;;;;;4.57;1.70;;;;;;;;;;6251366;28;20104;-81
2022/05/22 00:25:47;;;;;;;4.95;1.92;;;;;;;;;;6245053;28;20030;-81
2022/05/22 00:28:48;;;;;;;3.58;1.90;;;;;;;;;;6249944;28;20429;-81
2022/05/22 00:31:49;;;;;;;1.77;1.38;;;;;;;;;;6251555;28;20021;-81
2022/05/22 00:34:49;;;;;;;2.63;1.70;;;;;;;;;;6250333;28;20022;-81
2022/05/22 00:37:49;;;;;;;2.77;1.50;;;;;;;;;;6251826;28;20260;-81
2022/05/22 00:40:49;;;;;;;3.65;1.83;;;;;;;;;;6252118;28;20256;-81
2022/05/22 00:43:54;;;;;;;3.08;1.75;;;;;;;;;;6250712;28;20778;-80
2022/05/22 00:46:54;;;;;;;4.45;2.42;;;;;;;;;;6248859;28;20047;-81
2022/05/22 00:50:00;;;;;;;3.08;1.60;;;;;;;;;;6250488;28;20017;-81
2022/05/22 00:53:00;;;;;;;5.15;1.90;;;;;;;;;;6250489;28;20053;-81
2022/05/22 00:56:01;;;;;;;3.13;2.03;;;;;;;;;;6250984;28;20017;-81
2022/05/22 00:59:04;;;;;;;3.83;2.08;;;;;;;;;;6249363;28;20556;-81
2022/05/22 01:02:04;;;;;;;5.03;1.85;;;;;;;;;;6250469;28;20097;-81
2022/05/22 01:05:05;;;;;;;4.18;2.08;;;;;;;;;;6249555;28;20021;-80
2022/05/22 01:08:05;;;;;;;6.13;2.22;;;;;;;;;;6250203;28;20029;-80
2022/05/22 01:11:13;;;;;;;4.15;2.05;;;;;;;;;;6249361;28;20022;-80
2022/05/22 01:14:15;;;;;;;3.85;2.22;;;;;;;;;;6249024;28;20020;-80
2022/05/22 01:17:16;;;;;;;6.18;2.72;;;;;;;;;;6249009;28;20106;-80
2022/05/22 01:20:16;;;;;;;4.07;1.75;;;;;;;;;;6248924;28;20025;-80
2022/05/22 01:23:17;;;;;;;7.53;3.17;;;;;;;;;;6249050;28;20087;-80
2022/05/22 01:26:18;;;;;;;7.13;2.70;;;;;;;;;;6249807;28;20021;-81
2022/05/22 01:29:18;;;;;;;4.43;2.60;;;;;;;;;;6248746;28;20104;-81
2022/05/22 01:32:18;;;;;;;7.68;2.95;;;;;;;;;;6250046;28;20056;-81
2022/05/22 01:35:20;;;;;;;5.63;2.80;;;;;;;;;;6249888;28;20029;-81
2022/05/22 01:38:20;;;;;;;;;;;;;;;;;;6249749;28;20394;-80
2022/05/22 01:41:21;;;;;;;6.35;3.38;;;;;;;;;;6247842;28;19909;-81
2022/05/22 01:44:22;;;;;;;5.77;2.47;;;;;;;;;;6248886;28;20083;-80
2022/05/22 01:47:22;;;;;;;5.78;2.53;;;;;;;;;;6249083;28;20825;-80
2022/05/22 01:50:22;;;;;;;4.20;2.10;;;;;;;;;;6249398;28;20010;-80
2022/05/22 01:53:23;;;;;;;5.20;2.22;;;;;;;;;;6246135;28;20037;-81
2022/05/22 01:56:23;;;;;;;3.10;2.08;;;;;;;;;;6248247;28;20056;-80
2022/05/22 01:59:24;;;;;;;5.68;3.05;;;;;;;;;;6247319;28;20024;-81
2022/05/22 02:02:24;;;;;;;8.85;4.07;;;;;;;;;;6247369;28;20028;-80
2022/05/22 02:05:24;;;;;;;7.23;3.40;;;;;;;;;;6248040;28;20104;-80
2022/05/22 02:08:26;;;;;;;7.75;3.17;;;;;;;;;;6248348;28;20260;-80
2022/05/22 02:11:26;;;;;;;6.07;3.07;;;;;;;;;;6247698;28;20021;-81
2022/05/22 02:14:26;;;;;;;5.82;2.78;;;;;;;;;;6248930;28;20362;-80
2022/05/22 02:17:27;;;;;;;5.25;3.10;;;;;;;;;;6246657;28;20029;-81
2022/05/22 02:20:27;;;;;;;7.18;2.90;;;;;;;;;;6247889;28;20025;-81
2022/05/22 02:23:28;;;;;;;4.93;3.05;;;;;;;;;;6245978;28;20036;-80
2022/05/22 02:26:28;;;;;;;6.03;3.67;;;;;;;;;;6242453;28;20500;-81
2022/05/22 02:29:28;;;;;;;8.80;4.60;;;;;;;;;;6248592;28;20096;-81
2022/05/22 02:32:29;;;;;;;6.87;3.47;;;;;;;;;;6248876;28;20343;-81
2022/05/22 02:35:30;;;;;;;7.72;4.60;;;;;;;;;;6246824;28;20687;-80
2022/05/22 02:38:30;;;;;;;6.28;3.95;;;;;;;;;;6247021;28;20024;-80
2022/05/22 02:41:31;;;;;;;14.63;5.78;;;;;;;;;;6250220;28;20025;-81
2022/05/22 02:44:32;;;;;;;6.85;4.22;;;;;;;;;;6248492;28;20028;-80
2022/05/22 02:47:33;;;;;;;14.80;4.45;;;;;;;;;;6247911;28;20424;-80
2022/05/22 02:50:33;;;;;;;7.20;4.15;;;;;;;;;;6247552;28;20023;-81
2022/05/22 02:53:34;;;;;;;12.52;4.03;;;;;;;;;;6247202;28;20029;-80
2022/05/22 02:56:34;;;;;;;6.37;4.00;;;;;;;;;;6248098;28;20113;-81
2022/05/22 02:59:35;;;;;;;8.80;3.67;;;;;;;;;;6250224;28;20252;-80
2022/05/22 03:02:35;;;;;;;5.60;3.25;;;;;;;;;;6250494;28;20358;-81
2022/05/22 03:08:54;;;;;;;5.50;3.60;;;;;;;;;;6249821;28;20284;-82
2022/05/22 03:11:55;;;;;;;6.85;3.55;;;;;;;;;;6245914;28;20023;-81
2022/05/22 03:14:56;;;;;;;13.02;4.78;;;;;;;;;;6247592;28;20022;-80
2022/05/22 03:17:56;;;;;;;7.30;3.65;;;;;;;;;;6245795;28;20067;-80
2022/05/22 03:20:57;;;;;;;8.37;4.00;;;;;;;;;;6246356;28;20049;-80
2022/05/22 03:23:57;;;;;;;11.00;4.50;;;;;;;;;;6246560;28;20268;-80
2022/05/22 03:26:57;;;;;;;7.60;3.45;;;;;;;;;;6246490;28;20037;-80
2022/05/22 03:29:58;;;;;;;6.30;3.63;;;;;;;;;;6247499;28;20025;-81
2022/05/22 03:32:58;;;;;;;4.95;3.40;;;;;;;;;;6246449;28;20374;-80
2022/05/22 03:35:58;;;;;;;5.47;3.37;;;;;;;;;;6248263;28;20020;-80
2022/05/22 03:38:59;;;;;;;7.95;4.45;;;;;;;;;;6247197;28;20256;-80
2022/05/22 03:41:59;;;;;;;6.28;3.50;;;;;;;;;;6242856;28;20033;-80
2022/05/22 03:45:00;;;;;;;7.75;4.00;;;;;;;;;;6246312;28;20026;-80
2022/05/22 03:48:00;;;;;;;7.60;3.70;;;;;;;;;;6248938;28;20112;-80
2022/05/22 03:51:00;;;;;;;10.97;3.67;;;;;;;;;;6246565;28;20030;-80
2022/05/22 03:54:00;;;;;;;10.30;4.50;;;;;;;;;;6246963;28;20280;-80
2022/05/22 03:57:01;;;;;;;4.90;3.10;;;;;;;;;;6247216;28;20264;-80
2022/05/22 04:00:04;;;;;;;6.05;4.15;;;;;;;;;;6247054;28;20465;-81
2022/05/22 04:03:04;;;;;;;10.32;3.50;;;;;;;;;;6247208;28;20473;-80
2022/05/22 04:06:06;;;;;;;8.43;3.45;;;;;;;;;;6246434;28;20072;-81
2022/05/22 04:09:06;;;;;;;6.68;3.42;;;;;;;;;;6246640;28;20469;-81
2022/05/22 04:12:07;;;;;;;7.87;3.20;;;;;;;;;;6245715;28;20020;-81
2022/05/22 04:15:09;;;;;;;9.00;2.57;;;;;;;;;;6251654;28;20369;-80
2022/05/22 04:18:09;;;;;;;7.90;2.75;;;;;;;;;;6246226;28;20032;-80
2022/05/22 04:21:10;;;;;;;5.03;2.45;;;;;;;;;;6245934;28;20021;-80
2022/05/22 04:27:29;;;;;;;9.07;3.25;;;;;;;;;;6245607;28;20080;-81
2022/05/22 04:30:30;;;;;;;6.65;3.33;;;;;;;;;;6251168;28;20047;-81
2022/05/22 04:33:30;;;;;;;8.52;3.00;;;;;;;;;;6252499;28;20037;-81
2022/05/22 04:36:31;;;;;;;7.18;2.47;;;;;;;;;;6244686;28;20116;-81
2022/05/22 04:39:31;;;;;;;4.90;2.63;;;;;;;;;;6254826;28;20411;-81
2022/05/22 04:42:35;;;;;;;3.05;2.10;;;;;;;;;;6254675;28;20296;-81
2022/05/22 04:45:38;;;;;;;5.95;2.35;;;;;;;;;;6245893;28;20104;-81
2022/05/22 04:48:38;;;;;;;6.18;2.80;;;;;;;;;;6254940;28;20432;-81
2022/05/22 04:51:38;;;;;;;5.10;3.23;;;;;;;;;;6253141;28;20070;-80
2022/05/22 04:54:39;;;;;;;8.95;2.60;;;;;;;;;;6252614;28;20856;-80
2022/05/22 04:57:39;;;;;;;5.63;2.53;;;;;;;;;;6250496;28;20083;-80
2022/05/22 05:00:39;;;;;;;5.65;2.75;;;;;;;;;;6248342;28;20556;-80
2022/05/22 05:03:40;;;;;;;5.57;1.98;;;;;;;;;;6244913;28;20057;-81
2022/05/22 05:06:40;;;;;;;4.30;1.90;;;;;;;;;;6246433;28;20033;-81
2022/05/22 05:09:40;;;;;;;7.35;2.22;;;;;;;;;;6242256;28;20392;-80
2022/05/22 05:12:41;;;;;;;6.25;2.40;;;;;;;;;;6254797;28;20492;-81
2022/05/22 05:15:42;;;;;;;9.50;3.03;;;;;;;;;;6250532;28;20075;-81
2022/05/22 05:18:42;;;;;;;4.13;2.00;;;;;;;;;;6251575;28;20744;-81
2022/05/22 05:21:42;;;;;;;5.10;1.40;;;;;;;;;;6252665;28;20716;-81
2022/05/22 05:24:43;;;;;;;5.83;1.50;;;;;;;;;;6251550;28;20025;-81
2022/05/22 05:27:43;;;;;;;3.57;1.17;;;;;;;;;;6251629;28;20092;-81
2022/05/22 05:30:43;;;;;;;5.57;2.37;;;;;;;;;;6252494;28;20477;-81
2022/05/22 05:33:44;;;;;;;2.97;1.63;;;;;;;;;;6251869;28;20009;-81
2022/05/22 05:36:45;;;;;;;6.27;1.77;;;;;;;;;;6254941;28;20025;-81
2022/05/22 05:39:45;;;;;;;;;;;;;;;;;;6253811;28;20032;-81
2022/05/22 05:42:46;;;;;;;2.90;1.40;;;;;;;;;;6267395;28;19905;-81
2022/05/22 05:45:48;;;;;;;8.88;2.40;;;;;;;;;;6253725;28;20025;-81
2022/05/22 05:48:48;;;;;;;;;;;;;;;;;;6253045;28;20377;-82
2022/05/22 05:51:48;;;;;;;8.10;1.23;;;;;;;;;;6270490;28;19905;-81
2022/05/22 05:54:48;;;;;;;4.97;1.20;;;;;;;;;;6248689;28;20053;-81
2022/05/22 05:57:49;;;;;;;5.07;2.30;;;;;;;;;;6250303;28;20108;-81
2022/05/22 06:00:49;;;;;;;6.97;1.43;;;;;;;;;;6250612;28;20100;-81
2022/05/22 06:03:50;;;;;;;3.47;1.60;;;;;;;;;;6244146;28;20029;-82
2022/05/22 06:06:50;;;;;;;4.45;1.30;;;;;;;;;;6250441;28;20086;-82
2022/05/22 06:09:51;;;;;;;3.43;1.20;;;;;;;;;;6251595;28;20025;-81
2022/05/22 06:12:51;;;;;;;5.87;1.13;;;;;;;;;;6249837;28;20393;-81
2022/05/22 06:15:52;;;;;;;3.03;1.20;;;;;;;;;;6248569;28;20501;-81
2022/05/22 06:18:53;;;;;;;4.82;1.27;;;;;;;;;;6247215;28;20072;-81
2022/05/22 06:21:53;;;;;;;3.77;1.50;;;;;;;;;;6235334;28;20437;-81
2022/05/22 06:24:53;;;;;;;3.70;0.87;;;;;;;;;;6244575;28;20018;-81
2022/05/22 06:27:53;;;;;;;7.50;1.20;;;;;;;;;;6230489;28;20025;-81
2022/05/22 06:30:54;;;;;;;8.97;1.37;;;;;;;;;;6239378;28;20021;-81
2022/05/22 06:33:54;;;;;;;5.10;1.20;;;;;;;;;;6251820;28;20089;-81
2022/05/22 06:36:59;;;;;;;4.00;1.33;;;;;;;;;;6234213;28;20503;-81
2022/05/22 06:40:00;;;;;;;4.15;1.40;;;;;;;;;;6240031;28;20025;-81
2022/05/22 06:43:01;;;;;;;2.77;0.90;;;;;;;;;;6236504;28;20034;-81
2022/05/22 06:46:01;;;;;;;;;;;;;;;;;;6239286;28;20033;-81
2022/05/22 06:49:02;;;;;;;3.88;1.58;;;;;;;;;;6249242;28;19916;-81
2022/05/22 06:52:03;;;;;;;5.22;1.30;;;;;;;;;;6247908;28;20072;-81
2022/05/22 06:55:03;;;;;;;5.70;1.53;;;;;;;;;;6247151;28;20450;-81
2022/05/22 06:58:03;;;;;;;5.00;1.43;;;;;;;;;;6243811;28;20515;-81
2022/05/22 07:01:04;;;;;;;1.97;1.13;;;;;;;;;;6239773;28;20022;-81
2022/05/22 07:04:04;;;;;;;3.03;1.00;;;;;;;;;;6245776;28;20030;-81
2022/05/22 07:07:04;;;;;;;4.10;1.23;;;;;;;;;;6242184;28;20419;-81
2022/05/22 07:10:05;;;;;;;3.97;1.07;;;;;;;;;;6250230;28;20032;-81
2022/05/22 07:13:06;;;;;;;7.37;1.63;;;;;;;;;;6253382;28;20005;-83
2022/05/22 07:16:06;;;;;;;2.93;1.53;;;;;;;;;;6246541;28;20455;-80
2022/05/22 07:19:07;;;;;;;3.87;1.10;;;;;;;;;;6242131;28;20014;-81
2022/05/22 07:22:07;;;;;;;1.50;1.05;;;;;;;;;;6249983;28;20021;-82
2022/05/22 07:25:08;;;;;;;1.67;1.20;;;;;;;;;;6246037;28;20024;-82
2022/05/22 07:28:08;;;;;;;1.70;1.20;;;;;;;;;;6247846;28;20029;-82
2022/05/22 07:31:15;;;;;;;4.37;2.23;;;;;;;;;;6249409;28;20023;-82
2022/05/22 07:34:16;;;;;;;6.63;2.38;;;;;;;;;;6249895;28;20373;-82
2022/05/22 07:37:16;;;;;;;4.37;1.50;;;;;;;;;;6246461;28;20022;-82
2022/05/22 07:40:17;;;;;;;3.53;1.33;;;;;;;;;;6252861;28;20439;-83
2022/05/22 07:43:17;;;;;;;4.20;1.07;;;;;;;;;;6251230;28;20112;-82
2022/05/22 07:46:18;;;;;;;7.13;1.67;;;;;;;;;;6249758;28;20045;-82
2022/05/22 07:52:38;;;;;;;3.25;1.30;;;;;;;;;;6240849;28;20038;-82
2022/05/22 07:55:41;;;;;;;1.00;1.00;;;;;;;;;;6251149;28;20059;-82
2022/05/22 07:58:42;;;;;;;6.63;1.23;;;;;;;;;;6259266;28;20021;-83
2022/05/22 08:01:42;;;;;;;4.00;1.23;;;;;;;;;;6259924;28;20481;-83
2022/05/22 08:04:43;;;;;;;2.50;0.63;;;;;;;;;;6256436;28;20712;-82
2022/05/22 08:07:43;;;;;;;4.07;1.00;;;;;;;;;;6254883;28;20006;-83
2022/05/22 08:10:44;;;;;;;4.57;1.40;;;;;;;;;;6247721;28;20362;-83
2022/05/22 08:13:44;;;;;;;2.10;1.00;;;;;;;;;;6263200;28;20017;-82
2022/05/22 08:16:44;;;;;;;3.23;0.90;;;;;;;;;;6254418;28;20028;-83
2022/05/22 08:19:45;;;;;;;2.50;1.07;;;;;;;;;;6263819;28;20024;-83
2022/05/22 08:22:45;;;;;;;3.07;0.70;;;;;;;;;;6254433;28;20010;-84
2022/05/22 08:25:46;;;;;;;3.47;0.80;;;;;;;;;;6261647;28;20441;-83
2022/05/22 08:28:47;;;;;;;5.68;1.08;;;;;;;;;;6250551;28;20091;-84
2022/05/22 08:31:47;;;;;;;4.43;1.10;;;;;;;;;;6238011;28;20420;-84
2022/05/22 08:34:47;;;;;;;4.73;1.23;;;;;;;;;;6240865;28;20056;-83
2022/05/22 08:37:47;;;;;;;2.63;0.80;;;;;;;;;;6249774;28;20475;-84
2022/05/22 08:40:54;;;;;;;6.83;1.00;;;;;;;;;;6241167;28;20064;-83
2022/05/22 08:44:00;;;;;;;2.55;1.02;;;;;;;;;;6253879;28;20071;-84
2022/05/22 08:47:03;;;;;;;3.35;1.10;;;;;;;;;;6253623;28;20428;-84
2022/05/22 08:50:06;;;;;;;2.30;1.00;;;;;;;;;;6253002;28;20021;-84
2022/05/22 08:53:09;;;;;;;1.58;0.80;;;;;;;;;;6254945;28;20041;-83
2022/05/22 08:59:35;;;;;;;3.60;0.97;;;;;;;;;;6250693;28;20033;-83
2022/05/22 09:02:52;;;;;;;3.25;1.50;;;;;;;;;;6253485;28;20029;-83
2022/05/22 09:05:54;;;;;;;2.05;0.98;;;;;;;;;;6255833;28;20033;-82
2022/05/22 09:08:54;;;;;;;2.75;1.00;;;;;;;;;;6250591;28;20211;-82
2022/05/22 09:11:55;;;;;;;4.00;1.30;;;;;;;;;;6254927;28;20025;-83
2022/05/22 09:15:05;;;;;;;2.20;0.80;;;;;;;;;;6250526;28;20037;-82
2022/05/22 09:18:24;;;;;;;4.13;1.52;;;;;;;;;;6250489;28;20120;-83
2022/05/22 09:21:30;;;;;;;3.53;1.20;;;;;;;;;;6252314;28;20021;-82
2022/05/22 09:24:30;;;;;;;5.65;1.13;;;;;;;;;;6252930;28;20032;-82
2022/05/22 09:27:40;;;;;;;5.23;0.90;;;;;;;;;;6250632;28;20029;-82
2022/05/22 09:30:40;;;;;;;6.72;2.13;;;;;;;;;;6250858;28;20040;-82
2022/05/22 09:33:46;;;;;;;2.60;0.97;;;;;;;;;;6250021;28;20461;-83
2022/05/22 09:36:53;;;;;;;4.03;1.30;;;;;;;;;;6239536;28;20114;-82
2022/05/22 09:39:58;;;;;;;3.67;1.05;;;;;;;;;;6233138;28;20033;-82
2022/05/22 09:43:17;;;;;;;2.25;0.70;;;;;;;;;;6244351;28;20033;-82
2022/05/22 09:46:36;;;;;;;3.38;0.98;;;;;;;;;;6262080;28;20134;-82
2022/05/22 09:49:45;;;;;;;2.50;0.90;;;;;;;;;;6239424;28;20029;-82
2022/05/22 09:52:57;;;;;;;1.98;0.73;;;;;;;;;;6248608;28;20045;-82
2022/05/22 09:56:02;;;;;;;4.05;1.35;;;;;;;;;;6245746;28;20025;-84
2022/05/22 09:59:13;;;;;;;1.63;0.88;;;;;;;;;;6245518;28;20398;-83
2022/05/22 10:02:22;;;;;;;3.83;1.70;;;;;;;;;;6252075;28;20034;-83
2022/05/22 10:05:30;;;;;;;2.45;0.93;;;;;;;;;;6252296;28;20036;-83
2022/05/22 10:08:39;;;;;;;3.78;0.98;;;;;;;;;;6253592;28;20021;-82
2022/05/22 10:11:43;;;;;;;2.17;1.00;;;;;;;;;;6252356;28;20457;-82
2022/05/22 10:14:53;;;;;;;3.35;1.17;;;;;;;;;;6259386;28;20039;-82
2022/05/22 10:18:13;;;;;;;3.72;1.17;;;;;;;;;;6244455;28;20086;-82
2022/05/22 10:21:25;;;;;;;3.10;0.82;;;;;;;;;;6248668;28;20029;-82
2022/05/22 10:24:34;;;;;;;2.35;0.70;;;;;;;;;;6247744;28;20029;-83
2022/05/22 10:27:43;;;;;;;2.88;1.25;;;;;;;;;;6236840;28;20017;-82
2022/05/22 10:30:43;;;;;;;1.48;0.80;;;;;;;;;;6240050;28;20109;-83
2022/05/22 10:34:01;;;;;;;3.27;0.70;;;;;;;;;;6236052;28;20014;-83
2022/05/22 10:37:17;;;;;;;3.08;0.93;;;;;;;;;;6242479;28;20021;-83
2022/05/22 10:40:19;;;;;;;2.42;1.30;;;;;;;;;;6246510;28;20037;-83
2022/05/22 10:43:19;;;;;;;4.57;1.17;;;;;;;;;;6246172;28;20022;-83
2022/05/22 10:46:19;;;;;;;3.03;1.10;;;;;;;;;;6248630;28;20489;-82
2022/05/22 10:49:23;;;;;;;2.47;1.00;;;;;;;;;;6250943;28;20014;-83
2022/05/22 10:52:24;;;;;;;4.93;0.98;;;;;;;;;;6251402;28;20053;-83
2022/05/22 10:55:25;;;;;;;2.55;0.98;;;;;;;;;;6253776;28;20524;-83
2022/05/22 10:58:28;;;;;;;2.33;1.00;;;;;;;;;;6248663;28;20050;-82
2022/05/22 11:01:30;;;;;;;1.30;0.70;;;;;;;;;;6252974;28;20078;-82
2022/05/22 11:04:41;;;;;;;4.75;1.05;;;;;;;;;;6250803;28;20013;-83
2022/05/22 11:07:43;;;;;;;1.90;1.30;;;;;;;;;;6247376;28;20059;-83
2022/05/22 11:10:43;;;;;;;2.70;1.13;;;;;;;;;;6226268;28;20120;-82
2022/05/22 11:13:45;;;;;;;4.80;1.33;;;;;;;;;;6242357;28;20036;-82
2022/05/22 11:16:45;;;;;;;;;;;;;;;;;;6242378;28;20036;-82
2022/05/22 11:19:46;;;;;;;3.90;1.17;;;;;;;;;;6243009;28;19905;-82
2022/05/22 11:22:58;;;;;;;;;;;;;;;;;;6247047;28;20025;-82
2022/05/22 11:26:12;;;;;;;1.20;0.83;;;;;;;;;;6248972;28;19952;-83
2022/05/22 11:29:19;;;;;;;2.83;0.80;;;;;;;;;;6235846;28;20075;-82
2022/05/22 11:32:19;;;;;;;1.17;0.50;;;;;;;;;;6248334;28;20022;-82
2022/05/22 11:35:31;;;;;;;1.40;0.87;;;;;;;;;;6233312;28;20025;-82
2022/05/22 11:38:38;;;;;;;1.95;0.82;;;;;;;;;;6238000;28;20037;-83
2022/05/22 11:41:44;;;;;;;2.80;0.45;;;;;;;;;;6253999;28;20025;-83
2022/05/22 11:45:03;;;;;;;3.63;0.98;;;;;;;;;;6249317;28;20021;-84
2022/05/22 11:48:12;;;;;;;1.67;0.60;;;;;;;;;;6248801;28;20055;-83
2022/05/22 11:51:22;;;;;;;1.10;0.50;;;;;;;;;;6249743;28;20017;-83
2022/05/22 11:54:35;;;;;;;2.65;0.90;;;;;;;;;;6247715;28;20075;-84
2022/05/22 11:57:41;;;;;;;0.68;0.68;;;;;;;;;;6243052;28;20061;-81
2022/05/22 12:00:47;;;;;;;3.60;1.13;;;;;;;;;;6237163;28;20030;-81
2022/05/22 12:04:06;;;;;;;1.33;0.82;;;;;;;;;;6249678;28;20025;-82
2022/05/22 12:07:24;;;;;;;2.97;0.90;;;;;;;;;;6248506;28;20049;-82
2022/05/22 12:10:32;;;;;;;3.65;2.38;;;;;;;;;;6242891;28;20037;-82
2022/05/22 12:13:37;;;;;;;0.60;0.40;;;;;;;;;;6246935;28;20022;-81
2022/05/22 12:16:41;;;;;;;0.88;0.50;;;;;;;;;;6224530;28;20067;-81
2022/05/22 12:19:56;;;;;;;1.23;0.52;;;;;;;;;;6246372;28;20021;-82
2022/05/22 12:23:15;;;;;;;1.63;0.90;;;;;;;;;;6245671;28;20037;-82
2022/05/22 12:26:15;;;;;;;3.88;2.33;;;;;;;;;;6247046;28;20129;-83
2022/05/22 12:29:31;;;;;;;2.07;0.70;;;;;;;;;;6249107;28;20477;-81
2022/05/22 12:32:43;;;;;;;1.52;1.10;;;;;;;;;;6241911;28;20100;-82
2022/05/22 12:35:46;;;;;;;2.92;1.55;;;;;;;;;;6246927;28;20033;-83
2022/05/22 12:38:51;;;;;;;1.98;0.63;;;;;;;;;;6258778;28;20013;-83
2022/05/22 12:41:58;;;;;;;2.33;1.45;;;;;;;;;;6262040;28;20017;-82
2022/05/22 12:44:58;;;;;;;1.67;0.98;;;;;;;;;;6266565;28;20056;-82
2022/05/22 12:48:23;;;;;;;3.83;1.10;;;;;;;;;;6255993;28;20065;-83
2022/05/22 12:51:32;;;;;;;0.90;0.60;;;;;;;;;;6253560;28;20025;-83
2022/05/22 12:54:33;;;;;;;1.40;0.60;;;;;;;;;;6251255;28;20517;-82
2022/05/22 12:57:33;;;;;;;3.70;0.77;;;;;;;;;;6244252;28;20397;-83
2022/05/22 13:00:39;;;;;;;0.83;0.50;;;;;;;;;;6245712;28;20032;-83
2022/05/22 13:03:41;;;;;;;3.45;1.00;;;;;;;;;;6243745;28;20473;-82
2022/05/22 13:06:53;;;;;;;1.77;1.40;;;;;;;;;;6253692;28;20056;-82
2022/05/22 13:09:54;;;;;;;2.45;0.90;;;;;;;;;;6245631;28;20025;-83
2022/05/22 13:13:04;;;;;;;0.95;0.60;;;;;;;;;;6251771;28;20385;-83
2022/05/22 13:16:08;;;;;;;1.90;0.70;;;;;;;;;;6237635;28;20021;-83
2022/05/22 13:19:20;;;;;;;4.78;0.90;;;;;;;;;;6253212;28;20021;-81
2022/05/22 13:22:27;;;;;;;5.45;0.73;;;;;;;;;;6254363;28;20075;-81
2022/05/22 13:25:29;;;;;;;4.03;0.90;;;;;;;;;;6247167;28;20049;-82
2022/05/22 13:28:45;;;;;;;5.53;0.93;;;;;;;;;;6242315;28;20040;-82
2022/05/22 13:31:49;;;;;;;2.95;0.80;;;;;;;;;;6234028;28;20029;-82
2022/05/22 13:34:53;;;;;;;2.15;0.50;;;;;;;;;;6247183;28;20021;-81
2022/05/22 13:37:55;;;;;;;1.40;0.65;;;;;;;;;;6247546;28;20026;-82
2022/05/22 13:41:14;;;;;;;1.92;0.95;;;;;;;;;;6267514;28;20063;-83
2022/05/22 13:44:33;;;;;;;2.58;0.85;;;;;;;;;;6234857;28;20088;-82
2022/05/22 13:47:46;;;;;;;2.80;1.00;;;;;;;;;;6252704;28;20025;-83
2022/05/22 13:54:14;;;;;;;2.25;1.35;;;;;;;;;;6247089;28;20053;-83
2022/05/22 13:57:18;;;;;;;2.72;1.02;;;;;;;;;;6238195;28;20013;-83
2022/05/22 14:00:21;;;;;;;3.67;0.65;;;;;;;;;;6253236;28;20140;-83
2022/05/22 14:03:21;;;;;;;2.58;0.98;;;;;;;;;;6250322;28;20021;-83
2022/05/22 14:06:25;;;;;;;5.13;1.00;;;;;;;;;;6254684;28;20111;-83
2022/05/22 14:09:30;;;;;;;1.33;0.80;;;;;;;;;;6254255;28;20013;-82
2022/05/22 14:12:32;;;;;;;1.83;0.70;;;;;;;;;;6251913;28;20009;-82
2022/05/22 14:15:33;;;;;;;2.28;0.82;;;;;;;;;;6251471;28;20024;-82
2022/05/22 14:18:34;;;;;;;2.00;0.70;;;;;;;;;;6251632;28;20025;-82
2022/05/22 14:21:39;;;;;;;1.95;0.73;;;;;;;;;;6261458;28;20469;-83
2022/05/22 14:24:52;;;;;;;0.98;0.60;;;;;;;;;;6250486;28;20101;-82
2022/05/22 14:27:53;;;;;;;1.65;0.70;;;;;;;;;;6249842;28;20023;-84
2022/05/22 14:30:54;;;;;;;0.63;0.57;;;;;;;;;;6250683;28;20025;-83
2022/05/22 14:33:58;;;;;;;0.93;0.80;;;;;;;;;;6253106;28;20033;-82
2022/05/22 14:37:00;;;;;;;0.80;0.43;;;;;;;;;;6249312;28;20013;-82
2022/05/22 14:40:02;;;;;;;2.42;1.13;;;;;;;;;;6244772;28;20025;-83
2022/05/22 14:43:03;;;;;;;1.50;0.55;;;;;;;;;;6250826;28;20025;-83
2022/05/22 14:46:05;;;;;;;1.38;1.17;;;;;;;;;;6250930;28;20109;-83
2022/05/22 14:49:28;;;;;;;1.65;0.90;;;;;;;;;;6252186;28;20436;-83
2022/05/22 14:52:32;;;;;;;3.20;0.60;;;;;;;;;;6257884;28;20017;-82
2022/05/22 14:55:43;;;;;;;3.53;1.05;;;;;;;;;;6250508;28;20104;-82
2022/05/22 14:58:50;;;;;;;1.92;0.50;;;;;;;;;;6254625;28;20029;-81
2022/05/22 15:01:51;;;;;;;1.50;0.82;;;;;;;;;;6255604;28;20026;-83
2022/05/22 15:04:53;;;;;;;0.70;0.50;;;;;;;;;;6259015;28;20024;-83
2022/05/22 15:07:54;;;;;;;1.38;0.70;;;;;;;;;;6254273;28;20033;-82
2022/05/22 15:10:55;;;;;;;4.22;0.88;;;;;;;;;;6242250;28;20436;-82
2022/05/22 15:14:03;;;;;;;2.47;0.90;;;;;;;;;;6247245;28;20047;-82
2022/05/22 15:17:12;;;;;;;3.05;0.82;;;;;;;;;;6247233;28;20052;-83
2022/05/22 15:20:14;;;;;;;0.90;0.60;;;;;;;;;;6243786;28;20037;-82
2022/05/22 15:26:42;;;;;;;3.15;1.02;;;;;;;;;;6246602;28;20034;-81
2022/05/22 15:29:45;;;;;;;1.98;0.60;;;;;;;;;;6241738;28;20112;-82
2022/05/22 15:32:45;;;;;;;1.27;0.68;;;;;;;;;;6247528;28;20125;-81
2022/05/22 15:35:47;;;;;;;2.83;0.80;;;;;;;;;;6243512;28;20552;-81
2022/05/22 15:38:54;;;;;;;1.17;0.65;;;;;;;;;;6241477;28;20025;-82
2022/05/22 15:41:55;;;;;;;2.30;0.80;;;;;;;;;;6242552;28;20396;-82
2022/05/22 15:45:12;;;;;;;0.60;0.60;;;;;;;;;;6238609;28;20501;-81
2022/05/22 15:51:33;;;;;;;2.67;1.10;;;;;;;;;;6244023;28;20030;-82
2022/05/22 15:54:34;;;;;;;4.28;1.10;;;;;;;;;;6263348;28;20056;-81
2022/05/22 15:57:34;;;;;;;3.20;0.80;;;;;;;;;;6237766;28;20025;-82
2022/05/22 16:00:35;;;;;;;1.60;0.80;;;;;;;;;;6249542;28;20261;-83
2022/05/22 16:03:38;;;;;;;2.53;0.73;;;;;;;;;;6249990;28;20025;-82
2022/05/22 16:06:39;;;;;;;3.00;0.70;;;;;;;;;;6249067;28;20034;-84
2022/05/22 16:09:40;;;;;;;3.33;0.80;;;;;;;;;;6250298;28;20037;-83
2022/05/22 16:12:40;;;;;;;2.07;0.70;;;;;;;;;;6251080;28;20026;-82
2022/05/22 16:15:41;;;;;;;6.10;1.00;;;;;;;;;;6251853;28;20080;-83
2022/05/22 16:18:41;;;;;;;1.63;1.23;;;;;;;;;;6252825;28;20014;-82
2022/05/22 16:21:42;;;;;;;1.33;0.90;;;;;;;;;;6254995;28;20029;-83
2022/05/22 16:24:43;;;;;;;3.80;1.07;;;;;;;;;;6256136;28;20064;-83
2022/05/22 16:27:43;;;;;;;2.83;0.80;;;;;;;;;;6259316;28;20757;-83
2022/05/22 16:30:44;;;;;;;1.03;0.90;;;;;;;;;;6248134;28;20048;-84
2022/05/22 16:33:45;;;;;;;2.42;1.05;;;;;;;;;;6254678;28;20071;-81
2022/05/22 16:36:46;;;;;;;3.00;1.03;;;;;;;;;;6254129;28;20033;-83
2022/05/22 16:39:46;;;;;;;2.23;0.90;;;;;;;;;;6252392;28;20032;-84
2022/05/22 16:42:47;;;;;;;4.30;1.53;;;;;;;;;;6252825;28;20260;-81
2022/05/22 16:45:47;;;;;;;6.40;1.50;;;;;;;;;;6252056;28;20805;-81
2022/05/22 16:55:26;;;;;;;1.40;1.10;;;;;;;;;;6256977;28;20033;-82
2022/05/22 16:58:32;;;;;;;1.37;0.90;;;;;;;;;;6248949;28;20029;-82
2022/05/22 17:01:32;;;;;;;3.03;1.35;;;;;;;;;;6256497;28;20469;-82
2022/05/22 17:04:33;;;;;;;3.43;1.57;;;;;;;;;;6246252;28;20060;-83
2022/05/22 17:07:34;;;;;;;2.60;1.27;;;;;;;;;;6252030;28;20014;-81
2022/05/22 17:14:12;;;;;;;5.18;1.00;;;;;;;;;;6247499;28;20536;-81
2022/05/22 17:17:13;;;;;;;2.72;1.30;;;;;;;;;;6244217;28;20103;-82
2022/05/22 17:20:14;;;;;;;1.50;1.02;;;;;;;;;;6248369;28;20531;-82
2022/05/22 17:23:17;;;;;;;2.70;1.60;;;;;;;;;;6248549;28;20029;-82
2022/05/22 17:26:18;;;;;;;6.28;1.42;;;;;;;;;;6248688;28;20021;-82
2022/05/22 17:29:18;;;;;;;3.17;1.50;;;;;;;;;;6246702;28;20074;-82
2022/05/22 17:32:19;;;;;;;1.63;1.03;;;;;;;;;;6250224;28;20040;-83
2022/05/22 17:35:24;;;;;;;5.25;1.75;;;;;;;;;;6250696;28;20018;-82
2022/05/22 17:38:24;;;;;;;4.13;1.70;;;;;;;;;;6250264;28;20481;-82
2022/05/22 17:41:28;;;;;;;4.47;1.20;;;;;;;;;;6246771;28;20056;-82
2022/05/22 17:44:30;;;;;;;1.90;1.00;;;;;;;;;;6243770;28;20032;-82
2022/05/22 17:47:30;;;;;;;3.92;1.70;;;;;;;;;;6241038;28;20018;-82
2022/05/22 17:50:33;;;;;;;4.93;1.70;;;;;;;;;;6245648;28;20030;-82
2022/05/22 17:53:35;;;;;;;1.25;1.05;;;;;;;;;;6243257;28;20088;-83
2022/05/22 17:56:35;;;;;;;3.20;1.23;;;;;;;;;;6258744;28;20043;-83
2022/05/22 17:59:36;;;;;;;4.90;1.43;;;;;;;;;;6250190;28;20026;-83
2022/05/22 18:02:36;;;;;;;2.70;1.83;;;;;;;;;;6264846;28;20103;-83
2022/05/22 18:05:38;;;;;;;3.78;1.20;;;;;;;;;;6260866;28;20089;-83
2022/05/22 18:08:40;;;;;;;2.58;1.65;;;;;;;;;;6263677;28;20010;-83
2022/05/22 18:18:18;;;;;;;4.25;1.55;;;;;;;;;;6245874;28;20033;-84
2022/05/22 18:21:23;;;;;;;3.73;1.87;;;;;;;;;;6249340;28;20040;-83
2022/05/22 18:27:50;;;;;;;4.68;1.33;;;;;;;;;;6238583;28;20030;-83
2022/05/22 18:30:56;;;;;;;3.58;1.60;;;;;;;;;;6236288;28;20496;-84
2022/05/22 18:33:56;;;;;;;4.38;1.52;;;;;;;;;;6230621;28;20032;-83
2022/05/22 18:36:57;;;;;;;4.03;1.07;;;;;;;;;;6251145;28;20025;-81
2022/05/22 18:39:57;;;;;;;2.00;1.20;;;;;;;;;;6251788;28;20324;-83
2022/05/22 18:43:01;;;;;;;5.90;1.45;;;;;;;;;;6241731;28;20028;-82
2022/05/22 18:46:06;;;;;;;5.38;2.03;;;;;;;;;;6249461;28;20052;-82
2022/05/22 18:49:10;;;;;;;7.80;2.38;;;;;;;;;;6229412;28;20022;-83
2022/05/22 18:52:13;;;;;;;8.90;3.78;;;;;;;;;;6247449;28;20020;-81
2022/05/22 18:55:14;;;;;;;16.35;4.80;;;;;;;;;;6239680;28;20065;-81
2022/05/22 18:58:24;;;;;;;10.03;3.97;;;;;;;;;;6243944;28;20026;-82
2022/05/22 19:01:25;;;;;;;10.90;4.68;;;;;;;;;;6237961;28;20022;-81
2022/05/22 19:04:27;;;;;;;19.48;6.05;;;;;;;;;;6246038;28;20017;-82